Terminal Aerodrome Forecast
Issued by NWS

Home | Current Version | Previous Version | Text Only | Print | Product List | Glossary On
Versions: 1 2 3 4 5 6 7 8 9 10 11 12 13 14 15 16
000
FTAK31 PAFA 221740
TAFAGA
TAF
PAGA 221740Z 2218/2318 VRB03KT P6SM VCSH OVC005
     FM221900 VRB03KT 5SM -SHRA BR BKN008 OVC025
     FM230000 27005KT P6SM VCSH SCT015 BKN035
     FM230600 VRB03KT P6SM FEW030 SCT050 BKN120=

USA.gov is the U.S. government's official web portal to all federal, state and local government web resources and services.